Time;durP1;ratioP1;P1;durP2;ratioP2;P2;SDS_P1;SDS_P2;PMS_P1;PMS_P2;Temp;Humidity;BMP_temperature;BMP_pressure;BME280_temperature;BME280_humidity;BME280_pressure;Samples;Min_cycle;Max_cycle;Signal;HPM_P1;HPM_P2
2021/06/28 00:01:11;;;;;;;;;;;;;;;;;;5045852;28;19925;-80
2021/06/28 00:03:41;;;;;;;;;;;;;;;;;;5050926;28;19928;-85
2021/06/28 00:06:10;;;;;;;;;;;;;;;;;;5043423;28;20370;-80
2021/06/28 00:08:40;;;;;;;;;;;;;;;;;;5034766;28;19924;-80
2021/06/28 00:11:09;;;;;;;;;;;;;;;;;;5044135;28;20409;-80
2021/06/28 00:13:37;;;;;;;;;;;;;;;;;;5036713;28;19924;-80
2021/06/28 00:16:06;;;;;;;;;;;;;;;;;;5051000;28;19925;-83
2021/06/28 00:18:34;;;;;;;;;;;;;;;;;;5028797;28;20497;-81
2021/06/28 00:21:03;;;;;;;;;;;;;;;;;;5053987;28;20478;-80
2021/06/28 00:23:31;;;;;;;;;;;;;;;;;;5069125;28;19932;-83
2021/06/28 00:26:01;;;;;;;;;;;;;;;;;;5054788;28;19932;-81
2021/06/28 00:28:29;;;;;;;;;;;;;;;;;;5061336;28;19935;-81
2021/06/28 00:30:57;;;;;;;;;;;;;;;;;;5050857;28;19924;-81
2021/06/28 00:33:26;;;;;;;;;;;;;;;;;;5036432;28;19931;-84
2021/06/28 00:35:54;;;;;;;;;;;;;;;;;;5065601;28;19929;-84
2021/06/28 00:38:22;;;;;;;;;;;;;;;;;;5041404;28;19939;-85
2021/06/28 00:40:51;;;;;;;;;;;;;;;;;;5058474;28;19912;-84
2021/06/28 00:43:20;;;;;;;;;;;;;;;;;;5085501;28;19954;-83
2021/06/28 00:45:49;;;;;;;;;;;;;;;;;;5084059;28;19918;-82
2021/06/28 00:48:17;;;;;;;;;;;;;;;;;;5075285;28;19925;-83
2021/06/28 00:50:46;;;;;;;;;;;;;;;;;;5084639;28;20397;-78
2021/06/28 00:53:15;;;;;;;;;;;;;;;;;;5034964;28;19924;-81
2021/06/28 00:55:44;;;;;;;;;;;;;;;;;;5071848;28;19947;-80
2021/06/28 00:58:12;;;;;;;;;;;;;;;;;;5070134;28;20425;-80
2021/06/28 01:00:42;;;;;;;;;;;;;;;;;;5054918;28;19935;-80
2021/06/28 01:03:10;;;;;;;;;;;;;;;;;;5053778;28;19924;-81
2021/06/28 01:05:39;;;;;;;;;;;;;;;;;;5044910;28;19932;-85
2021/06/28 01:08:08;;;;;;;;;;;;;;;;;;5079032;28;19913;-84
2021/06/28 01:10:38;;;;;;;;;;;;;;;;;;5049308;28;19924;-79
2021/06/28 01:13:06;;;;;;;;;;;;;;;;;;5049050;28;19925;-79
2021/06/28 01:15:35;;;;;;;;;;;;;;;;;;5066421;28;19924;-80
2021/06/28 01:18:05;;;;;;;;;;;;;;;;;;5039433;28;19924;-80
2021/06/28 01:20:34;;;;;;;;;;;;;;;;;;5056841;28;19939;-82
2021/06/28 01:23:11;;;;;;;;;;;;;;;;;;5065396;28;20401;-79
2021/06/28 01:25:39;;;;;;;;;;;;;;;;;;5057179;28;19925;-83
2021/06/28 01:28:08;;;;;;;;;;;;;;;;;;5066127;28;19924;-80
2021/06/28 01:30:36;;;;;;;;;;;;;;;;;;5060727;28;19924;-80
2021/06/28 01:33:04;;;;;;;;;;;;;;;;;;5041790;28;19929;-79
2021/06/28 01:35:33;;;;;;;;;;;;;;;;;;5039673;28;20404;-80
2021/06/28 01:38:02;;;;;;;;;;;;;;;;;;5057078;28;19924;-80
2021/06/28 01:40:33;;;;;;;;;;;;;;;;;;5069864;28;19928;-84
2021/06/28 01:43:02;;;;;;;;;;;;;;;;;;5022647;28;19935;-79
2021/06/28 01:45:30;;;;;;;;;;;;;;;;;;5055996;28;19939;-82
2021/06/28 01:47:59;;;;;;;;;;;;;;;;;;5037877;28;19928;-82
2021/06/28 01:50:28;;;;;;;;;;;;;;;;;;5023606;28;19925;-80
2021/06/28 01:52:57;;;;;;;;;;;;;;;;;;5081113;28;19925;-79
2021/06/28 01:55:25;;;;;;;;;;;;;;;;;;5038187;28;19925;-80
2021/06/28 01:57:55;;;;;;;;;;;;;;;;;;5039912;28;19935;-79
2021/06/28 02:00:25;;;;;;;;;;;;;;;;;;5067114;28;20401;-79
2021/06/28 02:02:57;;;;;;;;;;;;;;;;;;5039383;28;20303;-81
2021/06/28 02:05:25;;;;;;;;;;;;;;;;;;5055846;28;19924;-81
2021/06/28 02:07:53;;;;;;;;;;;;;;;;;;5045851;28;19929;-79
2021/06/28 02:10:22;;;;;;;;;;;;;;;;;;5054920;28;19931;-79
2021/06/28 02:12:50;;;;;;;;;;;;;;;;;;5048943;28;20378;-78
2021/06/28 02:15:20;;;;;;;;;;;;;;;;;;5059311;28;19932;-78
2021/06/28 02:17:49;;;;;;;;;;;;;;;;;;5082054;28;20413;-79
2021/06/28 02:20:18;;;;;;;;;;;;;;;;;;5055666;28;20147;-78
2021/06/28 02:22:46;;;;;;;;;;;;;;;;;;5028589;28;19924;-78
2021/06/28 02:25:15;;;;;;;;;;;;;;;;;;5053773;28;19928;-79
2021/06/28 02:27:43;;;;;;;;;;;;;;;;;;5050165;28;20297;-78
2021/06/28 02:30:12;;;;;;;;;;;;;;;;;;5044233;28;19932;-79
2021/06/28 02:32:42;;;;;;;;;;;;;;;;;;5049090;28;19925;-79
2021/06/28 02:35:11;;;;;;;;;;;;;;;;;;5054891;28;19925;-80
2021/06/28 02:37:40;;;;;;;;;;;;;;;;;;5026999;28;19932;-80
2021/06/28 02:40:09;;;;;;;;;;;;;;;;;;5050051;28;19931;-82
2021/06/28 02:42:57;;;;;;;;;;;;;;;;;;5030764;28;20374;-79
2021/06/28 02:45:43;;;;;;;;;;;;;;;;;;5087347;28;19999;-79
2021/06/28 02:48:13;;;;;;;;;;;;;;;;;;5054182;28;19924;-79
2021/06/28 02:50:41;;;;;;;;;;;;;;;;;;5052373;28;19925;-78
2021/06/28 02:53:09;;;;;;;;;;;;;;;;;;5073005;28;20393;-79
2021/06/28 02:55:38;;;;;;;;;;;;;;;;;;5053407;28;19924;-79
2021/06/28 02:58:07;;;;;;;;;;;;;;;;;;5054811;28;20386;-79
2021/06/28 03:00:35;;;;;;;;;;;;;;;;;;5054339;28;19935;-80
2021/06/28 03:03:16;;;;;;;;;;;;;;;;;;5105024;27;20546;-81
2021/06/28 03:05:57;;;;;;;;;;;;;;;;;;5062696;27;19983;-79
2021/06/28 03:08:39;;;;;;;;;;;;;;;;;;5076711;27;19966;-80
2021/06/28 03:11:21;;;;;;;;;;;;;;;;;;5100798;27;19947;-83
2021/06/28 03:14:08;;;;;;;;;;;;;;;;;;5103380;27;19974;-82
2021/06/28 03:16:48;;;;;;;;;;;;;;;;;;5147107;27;19972;-84
2021/06/28 03:19:30;;;;;;;;;;;;;;;;;;5086972;27;19913;-83
2021/06/28 03:22:11;;;;;;;;;;;;;;;;;;5090316;27;19978;-80
2021/06/28 03:24:53;;;;;;;;;;;;;;;;;;5091378;27;19959;-82
2021/06/28 03:27:34;;;;;;;;;;;;;;;;;;5087045;27;20233;-80
2021/06/28 03:30:17;;;;;;;;;;;;;;;;;;5124434;27;20267;-80
2021/06/28 03:32:57;;;;;;;;;;;;;;;;;;5072035;27;20361;-79
2021/06/28 03:35:39;;;;;;;;;;;;;;;;;;5098373;27;19940;-83
2021/06/28 03:38:21;;;;;;;;;;;;;;;;;;5129693;27;19943;-79
2021/06/28 03:41:02;;;;;;;;;;;;;;;;;;5135363;27;19992;-79
2021/06/28 03:43:44;;;;;;;;;;;;;;;;;;5150069;27;19938;-80
2021/06/28 03:46:25;;;;;;;;;;;;;;;;;;5129556;27;20386;-80
2021/06/28 03:49:07;;;;;;;;;;;;;;;;;;5076234;27;19920;-81
2021/06/28 03:51:48;;;;;;;;;;;;;;;;;;5099859;27;20378;-80
2021/06/28 03:54:30;;;;;;;;;;;;;;;;;;5061680;28;19913;-82
2021/06/28 03:57:11;;;;;;;;;;;;;;;;;;5100114;27;19973;-80
2021/06/28 03:59:53;;;;;;;;;;;;;;;;;;5157723;27;19924;-81
2021/06/28 04:02:37;;;;;;;;;;;;;;;;;;5147093;27;19931;-84
2021/06/28 04:05:19;;;;;;;;;;;;;;;;;;5144622;27;19916;-83
2021/06/28 04:08:01;;;;;;;;;;;;;;;;;;5134984;27;19934;-80
2021/06/28 04:10:43;;;;;;;;;;;;;;;;;;5138131;27;19951;-80
2021/06/28 04:13:24;;;;;;;;;;;;;;;;;;5101006;27;20373;-78
2021/06/28 04:16:05;;;;;;;;;;;;;;;;;;5091633;27;19951;-79
2021/06/28 04:18:47;;;;;;;;;;;;;;;;;;5117146;27;19973;-79
2021/06/28 04:21:28;;;;;;;;;;;;;;;;;;5100579;27;19955;-79
2021/06/28 04:24:10;;;;;;;;;;;;;;;;;;5082897;27;19917;-78
2021/06/28 04:26:51;;;;;;;;;;;;;;;;;;5104462;27;20414;-79
2021/06/28 04:29:33;;;;;;;;;;;;;;;;;;5142590;27;19941;-82
2021/06/28 04:32:14;;;;;;;;;;;;;;;;;;5100667;27;19948;-80
2021/06/28 04:34:58;;;;;;;;;;;;;;;;;;5132133;27;19959;-80
2021/06/28 04:37:40;;;;;;;;;;;;;;;;;;5135786;27;20031;-82
2021/06/28 04:40:21;;;;;;;;;;;;;;;;;;5066657;28;19994;-81
2021/06/28 04:43:02;;;;;;;;;;;;;;;;;;5087440;27;20394;-80
2021/06/28 04:45:43;;;;;;;;;;;;;;;;;;5089241;27;19975;-80
2021/06/28 04:48:25;;;;;;;;;;;;;;;;;;5048474;28;20030;-80
2021/06/28 04:51:06;;;;;;;;;;;;;;;;;;5036788;28;19918;-79
2021/06/28 04:53:48;;;;;;;;;;;;;;;;;;5095427;27;19982;-80
2021/06/28 04:56:30;;;;;;;;;;;;;;;;;;5117984;27;20004;-81
2021/06/28 04:59:11;;;;;;;;;;;;;;;;;;5128210;27;19948;-81
2021/06/28 05:01:53;;;;;;;;;;;;;;;;;;5099451;27;20000;-79
2021/06/28 05:04:34;;;;;;;;;;;;;;;;;;5117200;27;19969;-82
2021/06/28 05:07:16;;;;;;;;;;;;;;;;;;5144093;27;19965;-82
2021/06/28 05:09:57;;;;;;;;;;;;;;;;;;5143174;27;19942;-78
2021/06/28 05:12:39;;;;;;;;;;;;;;;;;;5085149;27;19966;-80
2021/06/28 05:15:20;;;;;;;;;;;;;;;;;;5064559;27;19963;-81
2021/06/28 05:18:02;;;;;;;;;;;;;;;;;;5094333;27;20406;-79
2021/06/28 05:20:43;;;;;;;;;;;;;;;;;;5098834;27;20023;-81
2021/06/28 05:23:25;;;;;;;;;;;;;;;;;;5149756;27;19955;-80
2021/06/28 05:26:06;;;;;;;;;;;;;;;;;;5137620;27;19951;-82
2021/06/28 05:28:48;;;;;;;;;;;;;;;;;;5080209;27;19981;-80
2021/06/28 05:31:29;;;;;;;;;;;;;;;;;;5106330;27;19981;-80
2021/06/28 05:34:11;;;;;;;;;;;;;;;;;;5139840;27;20215;-80
2021/06/28 05:36:52;;;;;;;;;;;;;;;;;;5085391;27;19939;-79
2021/06/28 05:39:34;;;;;;;;;;;;;;;;;;5050168;28;19987;-82
2021/06/28 05:42:16;;;;;;;;;;;;;;;;;;5087382;27;19956;-79
2021/06/28 05:44:57;;;;;;;;;;;;;;;;;;5054177;28;19949;-80
2021/06/28 05:47:39;;;;;;;;;;;;;;;;;;5136303;27;19974;-79
2021/06/28 05:50:21;;;;;;;;;;;;;;;;;;5128510;27;19959;-80
2021/06/28 05:53:03;;;;;;;;;;;;;;;;;;5079963;27;20132;-79
2021/06/28 05:55:45;;;;;;;;;;;;;;;;;;5134826;27;19951;-80
2021/06/28 05:58:28;;;;;;;;;;;;;;;;;;5121587;27;19965;-79
2021/06/28 06:01:09;;;;;;;;;;;;;;;;;;5081677;27;20172;-81
2021/06/28 06:03:51;;;;;;;;;;;;;;;;;;5112583;27;20392;-79
2021/06/28 06:06:32;;;;;;;;;;;;;;;;;;5128605;27;20004;-79
2021/06/28 06:09:14;;;;;;;;;;;;;;;;;;5105206;27;20002;-79
2021/06/28 06:11:56;;;;;;;;;;;;;;;;;;5076438;27;19975;-80
2021/06/28 06:14:37;;;;;;;;;;;;;;;;;;5082486;27;19956;-80
2021/06/28 06:17:19;;;;;;;;;;;;;;;;;;5132418;27;19955;-80
2021/06/28 06:20:00;;;;;;;;;;;;;;;;;;5091877;27;20393;-78
2021/06/28 06:22:42;;;;;;;;;;;;;;;;;;5081657;27;19989;-81
2021/06/28 06:25:23;;;;;;;;;;;;;;;;;;5099225;27;20005;-80
2021/06/28 06:28:05;;;;;;;;;;;;;;;;;;5048872;28;19940;-78
2021/06/28 06:30:46;;;;;;;;;;;;;;;;;;5091997;27;19967;-79
2021/06/28 06:33:28;;;;;;;;;;;;;;;;;;5083439;27;19947;-81
2021/06/28 06:36:09;;;;;;;;;;;;;;;;;;5076073;28;19940;-80
2021/06/28 06:38:51;;;;;;;;;;;;;;;;;;5125399;27;19943;-81
2021/06/28 06:41:32;;;;;;;;;;;;;;;;;;5070373;27;20015;-81
2021/06/28 06:44:14;;;;;;;;;;;;;;;;;;5076700;27;19968;-79
2021/06/28 06:46:55;;;;;;;;;;;;;;;;;;5119436;27;19939;-80
2021/06/28 06:49:37;;;;;;;;;;;;;;;;;;5090116;28;19969;-78
2021/06/28 06:52:20;;;;;;;;;;;;;;;;;;5140402;27;19980;-79
2021/06/28 06:55:03;;;;;;;;;;;;;;;;;;5096922;27;19936;-79
2021/06/28 06:57:44;;;;;;;;;;;;;;;;;;5085619;27;20336;-78
2021/06/28 07:00:26;;;;;;;;;;;;;;;;;;5099651;27;20470;-78
2021/06/28 07:03:08;;;;;;;;;;;;;;;;;;5111169;27;19927;-78
2021/06/28 07:05:49;;;;;;;;;;;;;;;;;;5064345;28;19921;-82
2021/06/28 07:08:31;;;;;;;;;;;;;;;;;;5128555;27;19916;-79
2021/06/28 07:11:12;;;;;;;;;;;;;;;;;;5095058;27;19952;-80
2021/06/28 07:13:54;;;;;;;;;;;;;;;;;;5122337;27;20416;-81
2021/06/28 07:16:35;;;;;;;;;;;;;;;;;;5094845;27;19978;-81
2021/06/28 07:19:17;;;;;;;;;;;;;;;;;;5081690;27;19955;-80
2021/06/28 07:21:58;;;;;;;;;;;;;;;;;;5132479;27;20405;-79
2021/06/28 07:24:40;;;;;;;;;;;;;;;;;;5163139;27;19953;-76
2021/06/28 07:27:21;;;;;;;;;;;;;;;;;;5124689;27;19920;-78
2021/06/28 07:30:03;;;;;;;;;;;;;;;;;;5113830;27;19904;-78
2021/06/28 07:32:44;;;;;;;;;;;;;;;;;;5149343;27;19908;-77
2021/06/28 07:35:26;;;;;;;;;;;;;;;;;;5100672;27;20359;-79
2021/06/28 07:38:07;;;;;;;;;;;;;;;;;;5108219;27;19952;-77
2021/06/28 07:40:49;;;;;;;;;;;;;;;;;;5084759;27;19952;-78
2021/06/28 07:43:31;;;;;;;;;;;;;;;;;;5088985;27;19968;-79
2021/06/28 07:46:12;;;;;;;;;;;;;;;;;;5150311;27;19919;-77
2021/06/28 07:48:54;;;;;;;;;;;;;;;;;;5124005;27;19934;-78
2021/06/28 07:51:37;;;;;;;;;;;;;;;;;;5094631;27;19913;-77
2021/06/28 07:54:18;;;;;;;;;;;;;;;;;;5088003;27;20452;-78
2021/06/28 07:57:00;;;;;;;;;;;;;;;;;;5099314;27;20385;-78
2021/06/28 07:59:41;;;;;;;;;;;;;;;;;;5147798;27;20007;-78
2021/06/28 08:02:23;;;;;;;;;;;;;;;;;;5076075;27;19916;-79
2021/06/28 08:05:05;;;;;;;;;;;;;;;;;;5070839;28;19957;-79
2021/06/28 08:07:46;;;;;;;;;;;;;;;;;;5088849;27;20025;-78
2021/06/28 08:10:27;;;;;;;;;;;;;;;;;;5103137;27;21200;-79
2021/06/28 08:13:09;;;;;;;;;;;;;;;;;;5083231;27;19967;-77
2021/06/28 08:15:50;;;;;;;;;;;;;;;;;;5106668;27;19947;-79
2021/06/28 08:18:32;;;;;;;;;;;;;;;;;;5107121;27;19947;-78
2021/06/28 08:21:14;;;;;;;;;;;;;;;;;;5050765;27;19953;-78
2021/06/28 08:23:55;;;;;;;;;;;;;;;;;;5087258;27;20402;-78
2021/06/28 08:26:38;;;;;;;;;;;;;;;;;;5145691;27;20034;-78
2021/06/28 08:29:20;;;;;;;;;;;;;;;;;;5163725;27;19999;-78
2021/06/28 08:32:03;;;;;;;;;;;;;;;;;;5129938;27;19951;-79
2021/06/28 08:34:44;;;;;;;;;;;;;;;;;;5143901;27;21143;-79
2021/06/28 08:37:26;;;;;;;;;;;;;;;;;;5082682;27;19916;-78
2021/06/28 08:40:11;;;;;;;;;;;;;;;;;;5089812;27;20004;-76
2021/06/28 08:42:52;;;;;;;;;;;;;;;;;;5105686;27;19958;-79
2021/06/28 08:45:35;;;;;;;;;;;;;;;;;;5100019;27;20015;-79
2021/06/28 08:48:17;;;;;;;;;;;;;;;;;;5133977;27;19947;-77
2021/06/28 08:50:58;;;;;;;;;;;;;;;;;;5057463;28;19956;-78
2021/06/28 08:53:40;;;;;;;;;;;;;;;;;;5097944;27;19955;-78
2021/06/28 08:56:21;;;;;;;;;;;;;;;;;;5119256;27;20384;-77
2021/06/28 08:59:10;;;;;;;;;;;;;;;;;;5101791;27;19951;-78
2021/06/28 09:01:57;;;;;;;;;;;;;;;;;;5115568;27;20475;-79
2021/06/28 09:04:39;;;;;;;;;;;;;;;;;;5131008;27;19984;-78
2021/06/28 09:07:26;;;;;;;;;;;;;;;;;;5086271;27;20012;-78
2021/06/28 09:10:10;;;;;;;;;;;;;;;;;;5104029;27;19977;-79
2021/06/28 09:12:55;;;;;;;;;;;;;;;;;;5106870;27;19989;-80
2021/06/28 09:15:41;;;;;;;;;;;;;;;;;;5101095;27;20410;-79
2021/06/28 09:18:27;;;;;;;;;;;;;;;;;;5129047;27;19959;-78
2021/06/28 09:21:09;;;;;;;;;;;;;;;;;;5101838;27;19965;-78
2021/06/28 09:23:50;;;;;;;;;;;;;;;;;;5104408;27;20410;-78
2021/06/28 09:26:35;;;;;;;;;;;;;;;;;;5090486;27;20001;-78
2021/06/28 09:29:32;;;;;;;;;;;;;;;;;;5188530;27;19918;-78
2021/06/28 09:32:15;;;;;;;;;;;;;;;;;;5136916;27;19922;-77
2021/06/28 09:34:56;;;;;;;;;;;;;;;;;;5082761;27;19959;-78
2021/06/28 09:37:40;;;;;;;;;;;;;;;;;;5100563;27;19967;-79
2021/06/28 09:40:25;;;;;;;;;;;;;;;;;;5136000;27;19959;-78
2021/06/28 09:43:22;;;;;;;;;;;;;;;;;;5059402;28;19940;-79
2021/06/28 09:46:04;;;;;;;;;;;;;;;;;;5054711;27;19948;-79
2021/06/28 09:48:46;;;;;;;;;;;;;;;;;;5033315;27;1966474;-78
2021/06/28 09:51:28;;;;;;;;;;;;;;;;;;5127633;27;20222;-78
2021/06/28 09:54:26;;;;;;;;;;;;;;;;;;5101752;27;19924;-79
2021/06/28 09:57:22;;;;;;;;;;;;;;;;;;5135503;27;19930;-78
2021/06/28 10:00:24;;;;;;;;;;;;;;;;;;5151182;27;19963;-76
2021/06/28 10:03:27;;;;;;;;;;;;;;;;;;5071053;27;19913;-79
2021/06/28 10:06:35;;;;;;;;;;;;;;;;;;5146858;27;19969;-79
2021/06/28 10:09:35;;;;;;;;;;;;;;;;;;5169755;27;19923;-88
2021/06/28 10:12:34;;;;;;;;;;;;;;;;;;5152507;27;20532;-80
2021/06/28 10:15:38;;;;;;;;;;;;;;;;;;5119184;27;20732;-78
2021/06/28 10:18:42;;;;;;;;;;;;;;;;;;5148222;27;19912;-80
2021/06/28 10:21:40;;;;;;;;;;;;;;;;;;5060170;27;19958;-79
2021/06/28 10:24:37;;;;;;;;;;;;;;;;;;5067124;27;19954;-78
2021/06/28 10:27:36;;;;;;;;;;;;;;;;;;5156354;27;19919;-79
2021/06/28 10:30:31;;;;;;;;;;;;;;;;;;5064945;27;19912;-79
2021/06/28 10:33:31;;;;;;;;;;;;;;;;;;5156532;27;20330;-79
2021/06/28 10:36:32;;;;;;;;;;;;;;;;;;5158315;27;19918;-79
2021/06/28 10:39:30;;;;;;;;;;;;;;;;;;5067436;27;19913;-79
2021/06/28 10:42:31;;;;;;;;;;;;;;;;;;5097883;27;19920;-79
2021/06/28 10:45:46;;;;;;;;;;;;;;;;;;5066076;27;20405;-79
2021/06/28 10:48:46;;;;;;;;;;;;;;;;;;5084576;27;20390;-79
2021/06/28 10:51:38;;;;;;;;;;;;;;;;;;5096726;27;20416;-79
2021/06/28 10:54:32;;;;;;;;;;;;;;;;;;5108049;28;19924;-79
2021/06/28 10:57:18;;;;;;;;;;;;;;;;;;5101952;27;19939;-80
2021/06/28 11:00:06;;;;;;;;;;;;;;;;;;5102841;28;20701;-80
2021/06/28 11:02:53;;;;;;;;;;;;;;;;;;5106205;28;19931;-80
2021/06/28 11:05:44;;;;;;;;;;;;;;;;;;5106721;28;19931;-80
2021/06/28 11:08:32;;;;;;;;;;;;;;;;;;5108619;28;19947;-80
2021/06/28 11:11:34;;;;;;;;;;;;;;;;;;5107481;28;19931;-80
2021/06/28 11:14:36;;;;;;;;;;;;;;;;;;5103944;28;19931;-80
2021/06/28 11:17:25;;;;;;;;;;;;;;;;;;5107338;28;19935;-80
2021/06/28 11:20:19;;;;;;;;;;;;;;;;;;5100877;28;19931;-80
2021/06/28 11:23:07;;;;;;;;;;;;;;;;;;5109687;28;19931;-80
2021/06/28 11:25:37;;;;;;;;;;;;;;;;;;5103495;28;19925;-80
2021/06/28 11:28:39;;;;;;;;;;;;;;;;;;5163730;27;19923;-80
2021/06/28 11:31:40;;;;;;;;;;;;;;;;;;5126352;27;19917;-79
2021/06/28 11:34:50;;;;;;;;;;;;;;;;;;5158641;27;19988;-80
2021/06/28 11:37:19;;;;;;;;;;;;;;;;;;5092336;28;20263;-80
2021/06/28 11:39:54;;;;;;;;;;;;;;;;;;5061074;28;19929;-80
2021/06/28 11:43:02;;;;;;;;;;;;;;;;;;5065705;27;19912;-80
2021/06/28 11:45:57;;;;;;;;;;;;;;;;;;5137447;27;20412;-80
2021/06/28 11:48:59;;;;;;;;;;;;;;;;;;5158517;27;19918;-80
2021/06/28 11:51:57;;;;;;;;;;;;;;;;;;5147344;27;19962;-79
2021/06/28 11:55:04;;;;;;;;;;;;;;;;;;5158410;27;20411;-80
2021/06/28 11:58:03;;;;;;;;;;;;;;;;;;5087704;27;19962;-80
2021/06/28 12:01:15;;;;;;;;;;;;;;;;;;5060304;27;19921;-80
2021/06/28 12:04:15;;;;;;;;;;;;;;;;;;5088858;27;19917;-78
2021/06/28 12:07:10;;;;;;;;;;;;;;;;;;5079231;27;19920;-79
2021/06/28 12:10:22;;;;;;;;;;;;;;;;;;5168939;27;19912;-78
2021/06/28 12:13:38;;;;;;;;;;;;;;;;;;5177303;27;19927;-79
2021/06/28 12:16:33;;;;;;;;;;;;;;;;;;5075266;27;19921;-79
2021/06/28 12:19:28;;;;;;;;;;;;;;;;;;5067936;27;19925;-77
2021/06/28 12:22:27;;;;;;;;;;;;;;;;;;5114293;27;19916;-80
2021/06/28 12:25:22;;;;;;;;;;;;;;;;;;5093373;27;20359;-78
2021/06/28 12:28:04;;;;;;;;;;;;;;;;;;5161568;27;19911;-79
2021/06/28 12:30:46;;;;;;;;;;;;;;;;;;5098984;27;19951;-79
2021/06/28 12:33:27;;;;;;;;;;;;;;;;;;5151228;27;19916;-78
2021/06/28 12:36:10;;;;;;;;;;;;;;;;;;5084280;27;20002;-80
2021/06/28 12:38:59;;;;;;;;;;;;;;;;;;5103603;27;19916;-79
2021/06/28 12:41:41;;;;;;;;;;;;;;;;;;5085400;27;20575;-78
2021/06/28 12:44:23;;;;;;;;;;;;;;;;;;5104592;27;19938;-79
2021/06/28 12:47:05;;;;;;;;;;;;;;;;;;5106937;27;19955;-79
2021/06/28 12:49:49;;;;;;;;;;;;;;;;;;5088775;27;19940;-79
2021/06/28 12:52:33;;;;;;;;;;;;;;;;;;5105898;27;19948;-78
2021/06/28 12:55:23;;;;;;;;;;;;;;;;;;5145844;27;19919;-77
2021/06/28 12:58:23;;;;;;;;;;;;;;;;;;5156910;27;19917;-79
2021/06/28 13:01:34;;;;;;;;;;;;;;;;;;5124944;27;19924;-78
2021/06/28 13:04:32;;;;;;;;;;;;;;;;;;5167753;27;19934;-79
2021/06/28 13:07:27;;;;;;;;;;;;;;;;;;5068652;27;19912;-78
2021/06/28 13:10:22;;;;;;;;;;;;;;;;;;5076375;27;19920;-80
2021/06/28 13:13:20;;;;;;;;;;;;;;;;;;5067119;27;20354;-80
2021/06/28 13:16:25;;;;;;;;;;;;;;;;;;5068190;27;20256;-79
2021/06/28 13:19:28;;;;;;;;;;;;;;;;;;5156365;27;19923;-79
2021/06/28 13:22:42;;;;;;;;;;;;;;;;;;5146095;27;20154;-79
2021/06/28 13:25:45;;;;;;;;;;;;;;;;;;5112010;27;19916;-79
2021/06/28 13:28:51;;;;;;;;;;;;;;;;;;5074563;27;19913;-80
2021/06/28 13:31:56;;;;;;;;;;;;;;;;;;5123198;27;20419;-80
2021/06/28 13:34:52;;;;;;;;;;;;;;;;;;5069383;27;19911;-80
2021/06/28 13:37:50;;;;;;;;;;;;;;;;;;5064341;27;19913;-80
2021/06/28 13:40:55;;;;;;;;;;;;;;;;;;5067954;27;19913;-79
2021/06/28 13:43:51;;;;;;;;;;;;;;;;;;5073749;27;19932;-81
2021/06/28 13:46:46;;;;;;;;;;;;;;;;;;5132266;27;20127;-80
2021/06/28 13:49:42;;;;;;;;;;;;;;;;;;5134030;27;19911;-81
2021/06/28 13:52:42;;;;;;;;;;;;;;;;;;5151035;27;19923;-80
2021/06/28 13:55:38;;;;;;;;;;;;;;;;;;5131081;27;19916;-80
2021/06/28 13:58:37;;;;;;;;;;;;;;;;;;5168552;27;20199;-81
2021/06/28 14:01:33;;;;;;;;;;;;;;;;;;5066468;27;19920;-80
2021/06/28 14:04:41;;;;;;;;;;;;;;;;;;5162669;27;19904;-80
2021/06/28 14:07:36;;;;;;;;;;;;;;;;;;5152859;27;19931;-81
2021/06/28 14:10:39;;;;;;;;;;;;;;;;;;5129611;27;19991;-81
2021/06/28 14:13:40;;;;;;;;;;;;;;;;;;5146481;27;19907;-81
2021/06/28 14:16:50;;;;;;;;;;;;;;;;;;5150103;27;19918;-82
2021/06/28 14:19:51;;;;;;;;;;;;;;;;;;5128620;27;19924;-80
2021/06/28 14:22:59;;;;;;;;;;;;;;;;;;5142916;27;19916;-80
2021/06/28 14:25:57;;;;;;;;;;;;;;;;;;5073711;27;19913;-79
2021/06/28 14:29:07;;;;;;;;;;;;;;;;;;5167873;27;19920;-80
2021/06/28 14:32:20;;;;;;;;;;;;;;;;;;5139384;27;19920;-81
2021/06/28 14:35:21;;;;;;;;;;;;;;;;;;5168933;27;19918;-80
2021/06/28 14:38:27;;;;;;;;;;;;;;;;;;5137370;27;20003;-80
2021/06/28 14:41:50;;;;;;;;;;;;;;;;;;5124154;27;20973;-80
2021/06/28 14:44:46;;;;;;;;;;;;;;;;;;5072967;27;19924;-80
2021/06/28 14:47:45;;;;;;;;;;;;;;;;;;5163222;27;19934;-80
2021/06/28 14:50:42;;;;;;;;;;;;;;;;;;5073786;27;20393;-80
2021/06/28 14:53:47;;;;;;;;;;;;;;;;;;5161242;27;19923;-80
2021/06/28 14:56:48;;;;;;;;;;;;;;;;;;5067559;27;19913;-80
2021/06/28 14:59:46;;;;;;;;;;;;;;;;;;5119097;27;20281;-79
2021/06/28 15:02:42;;;;;;;;;;;;;;;;;;5112801;27;20341;-81
2021/06/28 15:05:40;;;;;;;;;;;;;;;;;;5063883;27;19925;-80
2021/06/28 15:08:39;;;;;;;;;;;;;;;;;;5105403;27;19916;-80
2021/06/28 15:11:52;;;;;;;;;;;;;;;;;;5149829;27;19919;-81
2021/06/28 15:14:57;;;;;;;;;;;;;;;;;;5112682;27;19916;-80
2021/06/28 15:17:55;;;;;;;;;;;;;;;;;;5160259;27;20296;-79
2021/06/28 15:20:57;;;;;;;;;;;;;;;;;;5129231;27;19965;-80
2021/06/28 15:23:58;;;;;;;;;;;;;;;;;;5163229;27;20544;-79
2021/06/28 15:26:55;;;;;;;;;;;;;;;;;;5080912;27;19913;-80
2021/06/28 15:29:59;;;;;;;;;;;;;;;;;;5149141;27;19916;-79
2021/06/28 15:33:11;;;;;;;;;;;;;;;;;;5152001;27;19940;-80
2021/06/28 15:36:12;;;;;;;;;;;;;;;;;;5055168;27;19913;-79
2021/06/28 15:39:18;;;;;;;;;;;;;;;;;;5129968;27;19920;-79
2021/06/28 15:42:17;;;;;;;;;;;;;;;;;;5155766;27;20451;-79
2021/06/28 15:45:13;;;;;;;;;;;;;;;;;;5067271;27;19917;-80
2021/06/28 15:48:12;;;;;;;;;;;;;;;;;;5172064;27;19910;-79
2021/06/28 15:51:26;;;;;;;;;;;;;;;;;;5186889;27;19927;-80
2021/06/28 15:54:25;;;;;;;;;;;;;;;;;;5056178;27;20397;-80
2021/06/28 15:57:20;;;;;;;;;;;;;;;;;;5065629;27;20459;-80
2021/06/28 16:00:16;;;;;;;;;;;;;;;;;;5062582;27;19940;-81
2021/06/28 16:03:14;;;;;;;;;;;;;;;;;;5143879;27;19918;-81
2021/06/28 16:06:14;;;;;;;;;;;;;;;;;;5171299;27;20451;-81
2021/06/28 16:09:10;;;;;;;;;;;;;;;;;;5119986;27;19923;-81
2021/06/28 16:12:10;;;;;;;;;;;;;;;;;;5163769;27;20052;-80
2021/06/28 16:15:08;;;;;;;;;;;;;;;;;;5136208;27;19931;-81
2021/06/28 16:18:15;;;;;;;;;;;;;;;;;;5142182;27;20219;-81
2021/06/28 16:21:23;;;;;;;;;;;;;;;;;;5149730;27;20007;-81
2021/06/28 16:24:33;;;;;;;;;;;;;;;;;;5148764;27;19916;-81
2021/06/28 16:27:46;;;;;;;;;;;;;;;;;;5153719;27;19912;-81
2021/06/28 16:30:41;;;;;;;;;;;;;;;;;;5143434;27;19915;-82
2021/06/28 16:33:39;;;;;;;;;;;;;;;;;;5175853;27;19918;-81
2021/06/28 16:36:53;;;;;;;;;;;;;;;;;;5145811;27;19916;-81
2021/06/28 16:39:48;;;;;;;;;;;;;;;;;;5142435;27;19923;-80
2021/06/28 16:42:43;;;;;;;;;;;;;;;;;;5070363;27;19932;-80
2021/06/28 16:45:39;;;;;;;;;;;;;;;;;;5124515;27;19931;-80
2021/06/28 16:49:14;;;;;;;;;;;;;;;;;;5149525;27;19916;-83
2021/06/28 16:52:11;;;;;;;;;;;;;;;;;;5063736;27;20552;-83
2021/06/28 16:55:41;;;;;;;;;;;;;;;;;;5126236;27;20366;-85
2021/06/28 17:40:34;;;;;;;;;;;;;;;;;;6211793;23;20050;-87
2021/06/28 17:43:42;;;;;;;;;;;;;;;;;;5155642;27;19923;-85
2021/06/28 17:46:43;;;;;;;;;;;;;;;;;;5127028;27;19912;-83
2021/06/28 17:49:46;;;;;;;;;;;;;;;;;;5130587;27;19904;-83
2021/06/28 17:52:46;;;;;;;;;;;;;;;;;;5157159;27;19919;-80
2021/06/28 17:55:45;;;;;;;;;;;;;;;;;;5084843;27;19935;-88
2021/06/28 18:08:53;;;;;;;;;;;;;;;;;;5135203;27;19915;-86
2021/06/28 18:22:12;;;;;;;;;;;;;;;;;;5120302;27;19923;-90
2021/06/28 19:32:30;;;;;;;;;;;;;;;;;;5468551;23;15842701;-87
2021/06/28 19:35:29;;;;;;;;;;;;;;;;;;5072808;27;19924;-89
2021/06/28 19:38:29;;;;;;;;;;;;;;;;;;5170831;27;20942;-83
2021/06/28 19:41:36;;;;;;;;;;;;;;;;;;5149077;27;19942;-85
2021/06/28 19:44:33;;;;;;;;;;;;;;;;;;5079271;27;19923;-86
2021/06/28 19:47:31;;;;;;;;;;;;;;;;;;5150954;27;19920;-84
2021/06/28 19:50:41;;;;;;;;;;;;;;;;;;5169925;27;20001;-87
2021/06/28 19:53:39;;;;;;;;;;;;;;;;;;5141936;27;19916;-88
2021/06/28 19:56:43;;;;;;;;;;;;;;;;;;5156740;27;19924;-83
2021/06/28 19:59:40;;;;;;;;;;;;;;;;;;5086504;27;19921;-83
2021/06/28 20:02:40;;;;;;;;;;;;;;;;;;5157063;27;20292;-85
2021/06/28 20:05:36;;;;;;;;;;;;;;;;;;5097941;27;19921;-84
2021/06/28 20:08:32;;;;;;;;;;;;;;;;;;5096750;27;19918;-84
2021/06/28 20:11:30;;;;;;;;;;;;;;;;;;5164332;27;19921;-81
2021/06/28 20:14:25;;;;;;;;;;;;;;;;;;5135659;27;19916;-85
2021/06/28 20:17:35;;;;;;;;;;;;;;;;;;5178568;27;19915;-83
2021/06/28 20:20:30;;;;;;;;;;;;;;;;;;5093121;27;19923;-85
2021/06/28 20:23:37;;;;;;;;;;;;;;;;;;5158033;27;19916;-84
2021/06/28 20:26:39;;;;;;;;;;;;;;;;;;5080181;27;19921;-85
2021/06/28 20:29:37;;;;;;;;;;;;;;;;;;5168858;27;19923;-84
2021/06/28 20:32:33;;;;;;;;;;;;;;;;;;5066582;27;19924;-82
2021/06/28 20:35:35;;;;;;;;;;;;;;;;;;5073181;27;19929;-85
2021/06/28 20:38:33;;;;;;;;;;;;;;;;;;5139490;27;19932;-85
2021/06/28 20:41:32;;;;;;;;;;;;;;;;;;5145439;27;19913;-88
2021/06/28 20:44:28;;;;;;;;;;;;;;;;;;5125973;27;19912;-88
2021/06/28 20:47:24;;;;;;;;;;;;;;;;;;5092323;27;19920;-84
2021/06/28 20:50:23;;;;;;;;;;;;;;;;;;5120473;27;19920;-86
2021/06/28 20:53:26;;;;;;;;;;;;;;;;;;5086998;27;19921;-81
2021/06/28 20:56:25;;;;;;;;;;;;;;;;;;5074790;27;19932;-84
2021/06/28 20:59:20;;;;;;;;;;;;;;;;;;5151902;27;19920;-87
2021/06/28 21:02:25;;;;;;;;;;;;;;;;;;5140070;27;19915;-85
2021/06/28 21:05:38;;;;;;;;;;;;;;;;;;5166706;27;19934;-85
2021/06/28 21:08:37;;;;;;;;;;;;;;;;;;5175749;27;19925;-81
2021/06/28 21:11:36;;;;;;;;;;;;;;;;;;5169615;27;19922;-84
2021/06/28 21:14:35;;;;;;;;;;;;;;;;;;5137633;27;19920;-86